createdAt,value
2018-07-10T00:02:35.401Z,16.30
2018-07-10T00:07:17.416Z,16.40
2018-07-10T00:10:01.877Z,16.30
2018-07-10T00:12:30.202Z,16.30
2018-07-10T00:14:58.470Z,16.20
2018-07-10T00:17:26.733Z,16.10
2018-07-10T00:19:55.105Z,16.10
2018-07-10T00:22:23.394Z,16.10
2018-07-10T00:24:51.736Z,16.10
2018-07-10T00:27:20.061Z,16.10
2018-07-10T00:29:48.398Z,16.10
2018-07-10T00:32:16.692Z,16.10
2018-07-10T00:34:45.050Z,16.10
2018-07-10T00:37:13.329Z,16.10
2018-07-10T00:39:41.636Z,16.00
2018-07-10T00:42:09.929Z,16.00
2018-07-10T00:44:38.249Z,15.90
2018-07-10T00:47:06.550Z,15.90
2018-07-10T00:49:34.845Z,15.90
2018-07-10T00:52:03.124Z,15.90
2018-07-10T00:54:31.413Z,15.90
2018-07-10T00:56:59.937Z,15.90
2018-07-10T00:59:28.281Z,16.00
2018-07-10T01:01:56.553Z,16.10
2018-07-10T01:04:24.884Z,16.00
2018-07-10T01:06:53.164Z,15.90
2018-07-10T01:09:21.471Z,15.90
2018-07-10T01:11:49.783Z,15.80
2018-07-10T01:14:18.534Z,15.70
2018-07-10T01:16:46.834Z,15.80
2018-07-10T01:19:16.567Z,15.90
2018-07-10T01:21:45.602Z,15.80
2018-07-10T01:24:16.449Z,15.90
2018-07-10T01:26:44.804Z,15.90
2018-07-10T01:29:20.211Z,15.90
2018-07-10T01:31:49.966Z,15.70
2018-07-10T01:34:18.295Z,15.80
2018-07-10T01:36:46.621Z,15.80
2018-07-10T01:39:15.353Z,15.70
2018-07-10T01:41:43.947Z,15.80
2018-07-10T01:44:12.307Z,15.80
2018-07-10T01:46:40.617Z,15.80
2018-07-10T01:51:36.977Z,15.70
2018-07-10T01:54:05.282Z,15.60
2018-07-10T01:56:33.593Z,15.70
2018-07-10T01:59:02.289Z,15.70
2018-07-10T02:01:30.624Z,15.60
2018-07-10T02:03:59.802Z,15.60
2018-07-10T02:06:29.473Z,15.70
2018-07-10T02:08:58.277Z,15.70
2018-07-10T02:11:26.614Z,15.60
2018-07-10T02:13:54.957Z,15.60
2018-07-10T02:16:23.318Z,15.60
2018-07-10T02:18:51.641Z,15.60
2018-07-10T02:21:19.942Z,15.60
2018-07-10T02:23:48.929Z,15.50
2018-07-10T02:26:26.352Z,15.60
2018-07-10T02:28:55.469Z,15.60
2018-07-10T02:31:24.530Z,15.50
2018-07-10T02:33:53.306Z,15.60
2018-07-10T02:36:22.454Z,15.60
2018-07-10T02:38:52.479Z,15.50
2018-07-10T02:41:22.447Z,15.50
2018-07-10T02:43:55.886Z,15.50
2018-07-10T02:46:24.590Z,15.50
2018-07-10T02:48:53.669Z,15.60
2018-07-10T02:51:22.015Z,15.60
2018-07-10T02:53:50.336Z,15.60
2018-07-10T02:56:20.555Z,15.60
2018-07-10T02:58:49.623Z,15.60
2018-07-10T03:01:18.951Z,15.60
2018-07-10T03:03:48.437Z,15.70
2018-07-10T03:06:16.754Z,15.60
2018-07-10T03:08:45.498Z,15.60
2018-07-10T03:11:14.503Z,15.50
2018-07-10T03:13:43.078Z,15.50
2018-07-10T03:18:40.329Z,15.50
2018-07-10T03:21:08.673Z,15.50
2018-07-10T03:23:36.985Z,15.50
2018-07-10T03:26:05.346Z,15.50
2018-07-10T03:28:33.713Z,15.60
2018-07-10T03:31:02.069Z,15.50
2018-07-10T03:33:30.389Z,15.60
2018-07-10T03:35:58.725Z,15.60
2018-07-10T03:38:27.065Z,15.50
2018-07-10T03:40:55.449Z,15.50
2018-07-10T03:43:23.853Z,15.50
2018-07-10T03:45:52.189Z,15.60
2018-07-10T03:48:21.078Z,15.60
2018-07-10T03:50:49.373Z,15.60
2018-07-10T03:53:18.153Z,15.60
2018-07-10T03:55:46.458Z,15.70
2018-07-10T03:58:14.778Z,15.60
2018-07-10T04:00:43.085Z,15.50
2018-07-10T04:03:11.565Z,15.50
2018-07-10T04:05:39.937Z,15.50
2018-07-10T04:08:09.441Z,15.50
2018-07-10T04:10:38.067Z,15.50
2018-07-10T04:13:12.890Z,15.50
2018-07-10T04:15:42.669Z,15.60
2018-07-10T04:18:13.589Z,15.60
2018-07-10T04:20:52.729Z,15.60
2018-07-10T04:23:22.455Z,15.60
2018-07-10T04:25:53.925Z,15.60
2018-07-10T04:28:28.297Z,15.50
2018-07-10T04:31:21.777Z,15.60
2018-07-10T04:33:50.241Z,15.60
2018-07-10T04:36:19.285Z,15.60
2018-07-10T04:38:53.542Z,15.70
2018-07-10T04:41:23.240Z,15.70
2018-07-10T04:43:53.775Z,15.60
2018-07-10T04:46:24.463Z,15.70
2018-07-10T04:49:00.112Z,15.70
2018-07-10T04:51:33.029Z,15.80
2018-07-10T04:54:12.446Z,15.90
2018-07-10T04:56:46.470Z,15.80
2018-07-10T05:04:12.258Z,16.00
2018-07-10T05:06:40.578Z,15.90
2018-07-10T05:09:09.094Z,15.90
2018-07-10T05:11:43.862Z,15.90
2018-07-10T05:14:12.162Z,16.00
2018-07-10T05:16:40.754Z,16.00
2018-07-10T05:19:09.229Z,16.10
2018-07-10T05:21:37.509Z,16.10
2018-07-10T05:24:05.834Z,16.20
2018-07-10T05:26:34.146Z,16.10
2018-07-10T05:29:02.538Z,16.20
2018-07-10T05:31:32.087Z,16.20
2018-07-10T05:34:00.405Z,16.20
2018-07-10T05:36:28.738Z,16.20
2018-07-10T05:39:04.706Z,16.30
2018-07-10T05:41:36.118Z,16.30
2018-07-10T05:44:04.421Z,16.40
2018-07-10T05:46:32.820Z,16.30
2018-07-10T05:49:03.130Z,16.50
2018-07-10T05:51:51.272Z,16.40
2018-07-10T05:54:20.445Z,16.40
2018-07-10T05:56:48.867Z,16.40
2018-07-10T05:59:17.165Z,16.50
2018-07-10T06:01:45.497Z,16.40
2018-07-10T06:04:16.613Z,16.40
2018-07-10T06:06:45.504Z,16.30
2018-07-10T06:09:14.838Z,16.40
2018-07-10T06:11:43.538Z,16.50
2018-07-10T06:14:11.883Z,16.50
2018-07-10T06:16:41.341Z,16.50
2018-07-10T06:19:10.057Z,16.50
2018-07-10T06:21:41.442Z,16.60
2018-07-10T06:24:11.425Z,16.60
2018-07-10T06:26:40.774Z,16.60
2018-07-10T06:29:10.089Z,16.70
2018-07-10T06:31:52.556Z,16.70
2018-07-10T06:34:27.497Z,16.80
2018-07-10T06:37:02.937Z,16.80
2018-07-10T06:39:31.849Z,16.80
2018-07-10T06:42:04.509Z,16.70
2018-07-10T06:44:35.472Z,16.80
2018-07-10T06:47:09.341Z,16.60
2018-07-10T06:49:37.927Z,16.70
2018-07-10T06:52:21.644Z,16.70
2018-07-10T06:55:10.829Z,16.70
2018-07-10T06:57:57.492Z,16.70
2018-07-10T07:00:26.225Z,16.80
2018-07-10T07:02:54.522Z,16.90
2018-07-10T07:05:22.838Z,17.00
2018-07-10T07:07:51.168Z,17.00
2018-07-10T07:12:47.533Z,16.90
2018-07-10T07:15:19.682Z,17.10
2018-07-10T07:17:48.692Z,17.20
2018-07-10T07:22:45.557Z,17.30
2018-07-10T07:25:13.889Z,17.30
2018-07-10T07:27:42.201Z,17.20
2018-07-10T07:30:10.561Z,17.10
2018-07-10T07:32:38.921Z,17.20
2018-07-10T07:35:07.279Z,17.30
2018-07-10T07:37:38.579Z,17.20
2018-07-10T07:40:06.907Z,17.10
2018-07-10T07:42:35.245Z,17.20
2018-07-10T07:47:32.071Z,17.30
2018-07-10T07:50:00.377Z,17.30
2018-07-10T07:52:30.240Z,17.20
2018-07-10T07:54:59.757Z,17.20
2018-07-10T07:57:28.141Z,17.20
2018-07-10T07:59:56.521Z,17.10
2018-07-10T08:02:25.039Z,17.00
2018-07-10T08:04:53.925Z,16.90
2018-07-10T08:07:23.291Z,16.80
2018-07-10T08:09:54.002Z,16.80
2018-07-10T08:12:22.784Z,16.80
2018-07-10T08:14:51.540Z,16.90
2018-07-10T08:17:20.347Z,16.80
2018-07-10T08:19:48.712Z,16.80
2018-07-10T08:22:17.006Z,16.90
2018-07-10T08:27:13.533Z,16.90
2018-07-10T08:29:41.981Z,17.00
2018-07-10T08:32:11.182Z,17.10
2018-07-10T08:34:39.509Z,16.90
2018-07-10T08:37:07.808Z,17.10
2018-07-10T08:39:36.889Z,16.90
2018-07-10T08:42:05.910Z,16.80
2018-07-10T08:44:34.773Z,17.00
2018-07-10T08:47:03.710Z,17.30
2018-07-10T08:49:36.809Z,17.30
2018-07-10T08:52:06.541Z,17.00
2018-07-10T08:54:34.877Z,16.70
2018-07-10T08:57:03.477Z,16.60
2018-07-10T08:59:32.192Z,16.60
2018-07-10T09:02:00.509Z,16.60
2018-07-10T09:04:28.973Z,16.50
2018-07-10T09:06:57.285Z,16.60
2018-07-10T09:09:25.768Z,16.30
2018-07-10T09:11:54.066Z,16.20
2018-07-10T09:14:22.374Z,16.20
2018-07-10T09:16:50.666Z,16.20
2018-07-10T09:19:21.093Z,16.20
2018-07-10T09:21:54.449Z,16.20
2018-07-10T09:24:22.800Z,16.30
2018-07-10T09:26:52.545Z,16.30
2018-07-10T09:29:22.177Z,16.30
2018-07-10T09:31:51.320Z,16.30
2018-07-10T09:34:19.685Z,16.20
2018-07-10T09:39:16.674Z,16.10
2018-07-10T09:41:45.205Z,16.20
2018-07-10T09:44:13.950Z,16.00
2018-07-10T09:49:10.264Z,16.20
2018-07-10T09:54:09.081Z,16.20
2018-07-10T09:56:37.350Z,16.20
2018-07-10T09:59:05.914Z,16.10
2018-07-10T10:04:02.035Z,16.20
2018-07-10T10:06:30.370Z,16.40
2018-07-10T10:08:58.657Z,16.50
2018-07-10T10:11:27.499Z,16.80
2018-07-10T10:13:55.882Z,16.90
2018-07-10T10:16:24.385Z,17.00
2018-07-10T10:18:55.070Z,17.00
2018-07-10T10:21:23.403Z,17.00
2018-07-10T10:23:51.713Z,17.00
2018-07-10T10:26:21.062Z,17.00
2018-07-10T10:28:49.444Z,17.10
2018-07-10T10:31:18.112Z,17.30
2018-07-10T10:33:46.462Z,17.30
2018-07-10T10:36:14.844Z,17.50
2018-07-10T10:38:44.087Z,17.60
2018-07-10T10:41:13.870Z,18.20
2018-07-10T10:43:42.461Z,18.40
2018-07-10T10:46:10.768Z,18.60
2018-07-10T10:48:39.181Z,18.80
2018-07-10T10:51:07.537Z,19.00
2018-07-10T10:53:36.362Z,19.30
2018-07-10T10:56:04.645Z,19.20
2018-07-10T10:58:33.079Z,19.40
2018-07-10T11:01:02.209Z,19.50
2018-07-10T11:03:30.525Z,19.40
2018-07-10T11:08:26.852Z,19.30
2018-07-10T11:10:55.639Z,19.10
2018-07-10T11:13:24.029Z,19.10
2018-07-10T11:15:52.342Z,19.30
2018-07-10T11:18:30.513Z,19.40
2018-07-10T11:21:03.866Z,19.70
2018-07-10T11:23:43.657Z,19.80
2018-07-10T11:26:12.807Z,19.80
2018-07-10T11:28:41.111Z,19.80
2018-07-10T11:31:09.414Z,19.60
2018-07-10T11:33:37.789Z,19.50
2018-07-10T11:36:06.107Z,19.40
2018-07-10T11:38:34.825Z,19.30
2018-07-10T11:41:03.257Z,19.30
2018-07-10T11:43:31.555Z,19.40
2018-07-10T11:45:59.878Z,19.50
2018-07-10T11:48:28.169Z,19.20
2018-07-10T11:50:57.230Z,19.10
2018-07-10T11:53:25.584Z,19.20
2018-07-10T11:55:53.897Z,19.10
2018-07-10T11:58:22.185Z,18.90
2018-07-10T12:00:50.514Z,18.80
2018-07-10T12:03:18.817Z,18.80
2018-07-10T12:05:47.097Z,18.80
2018-07-10T12:08:15.413Z,18.80
2018-07-10T12:10:46.253Z,18.90
2018-07-10T12:13:14.601Z,19.10
2018-07-10T12:15:42.955Z,19.30
2018-07-10T12:18:14.733Z,19.10
2018-07-10T12:20:43.365Z,19.00
2018-07-10T12:23:12.445Z,19.20
2018-07-10T12:25:43.117Z,19.20
2018-07-10T12:28:12.497Z,19.30
2018-07-10T12:30:40.793Z,19.70
2018-07-10T12:33:09.137Z,19.90
2018-07-10T12:35:37.525Z,19.90
2018-07-10T12:38:05.913Z,19.90
2018-07-10T12:40:34.605Z,20.00
2018-07-10T12:43:02.932Z,19.90
2018-07-10T12:45:31.210Z,19.90
2018-07-10T12:47:59.853Z,19.70
2018-07-10T12:50:28.224Z,19.50
2018-07-10T12:52:56.573Z,19.20
2018-07-10T12:55:26.738Z,18.90
2018-07-10T12:57:55.905Z,18.60
2018-07-10T13:00:26.217Z,18.50
2018-07-10T13:02:54.603Z,18.50
2018-07-10T13:05:25.741Z,18.50
2018-07-10T13:07:54.083Z,19.00
2018-07-10T13:10:22.380Z,20.30
2018-07-10T13:12:50.693Z,20.60
2018-07-10T13:15:19.030Z,20.60
2018-07-10T13:17:50.289Z,21.00
2018-07-10T13:20:19.241Z,21.20
2018-07-10T13:22:47.590Z,20.90
2018-07-10T13:25:15.897Z,20.40
2018-07-10T13:27:44.194Z,21.10
2018-07-10T13:30:12.497Z,21.70
2018-07-10T13:32:40.840Z,21.30
2018-07-10T13:35:09.149Z,21.00
2018-07-10T13:37:38.988Z,21.10
2018-07-10T13:40:07.308Z,21.50
2018-07-10T13:42:47.109Z,22.30
2018-07-10T13:45:16.502Z,21.90
2018-07-10T13:47:44.929Z,22.00
2018-07-10T13:50:15.469Z,22.30
2018-07-10T13:52:44.141Z,22.30
2018-07-10T13:55:12.469Z,22.50
2018-07-10T13:57:43.622Z,22.40
2018-07-10T14:00:11.907Z,22.30
2018-07-10T14:02:41.415Z,22.90
2018-07-10T14:05:09.734Z,23.10
2018-07-10T14:07:38.049Z,22.60
2018-07-10T14:10:06.409Z,21.80
2018-07-10T14:12:34.780Z,21.20
2018-07-10T14:15:03.034Z,21.10
2018-07-10T14:17:31.349Z,21.10
2018-07-10T14:19:59.893Z,20.90
2018-07-10T14:22:28.749Z,20.80
2018-07-10T14:24:57.069Z,20.80
2018-07-10T14:27:25.441Z,21.80
2018-07-10T14:29:53.736Z,22.40
2018-07-10T14:32:22.090Z,22.10
2018-07-10T14:34:50.704Z,22.20
2018-07-10T14:37:19.770Z,22.90
2018-07-10T14:39:48.421Z,23.30
2018-07-10T14:42:17.057Z,22.90
2018-07-10T14:44:45.621Z,22.90
2018-07-10T14:47:14.503Z,22.80
2018-07-10T14:49:42.857Z,22.90
2018-07-10T14:52:11.201Z,22.40
2018-07-10T14:54:39.489Z,22.10
2018-07-10T14:57:07.807Z,22.70
2018-07-10T14:59:36.102Z,23.40
2018-07-10T15:02:04.409Z,23.60
2018-07-10T15:04:32.809Z,23.80
2018-07-10T15:07:01.087Z,23.90
2018-07-10T15:09:31.971Z,24.10
2018-07-10T15:14:28.781Z,24.50
2018-07-10T15:17:02.364Z,24.40
2018-07-10T15:19:30.649Z,24.20
2018-07-10T15:21:58.973Z,23.90
2018-07-10T15:24:27.270Z,23.40
2018-07-10T15:26:55.550Z,23.10
2018-07-10T15:32:22.813Z,22.20
2018-07-10T15:34:51.689Z,22.10
2018-07-10T15:37:20.377Z,22.10
2018-07-10T15:39:48.733Z,22.30
2018-07-10T15:42:17.025Z,22.40
2018-07-10T15:44:45.359Z,22.30
2018-07-10T15:47:13.625Z,22.10
2018-07-10T15:49:41.945Z,21.80
2018-07-10T15:52:10.249Z,22.00
2018-07-10T15:54:38.545Z,22.20
2018-07-10T15:57:06.829Z,22.20
2018-07-10T15:59:35.198Z,21.90
2018-07-10T16:02:03.586Z,21.40
2018-07-10T16:06:59.947Z,21.20
2018-07-10T16:09:28.239Z,21.30
2018-07-10T16:11:59.713Z,21.40
2018-07-10T16:14:28.729Z,21.40
2018-07-10T16:16:57.365Z,21.40
2018-07-10T16:19:30.121Z,21.50
2018-07-10T16:22:05.876Z,21.30
2018-07-10T16:24:37.941Z,21.30
2018-07-10T16:27:06.862Z,21.20
2018-07-10T16:29:35.145Z,21.30
2018-07-10T16:32:06.447Z,21.10
2018-07-10T16:34:34.821Z,20.90
2018-07-10T16:37:03.369Z,20.80
2018-07-10T16:39:31.749Z,20.80
2018-07-10T16:44:09.813Z,20.90
2018-07-10T16:46:39.337Z,21.00
2018-07-10T16:49:15.181Z,21.30
2018-07-10T16:51:49.925Z,21.20
2018-07-10T16:54:18.572Z,20.90
2018-07-10T16:56:46.837Z,20.60
2018-07-10T16:59:15.157Z,20.30
2018-07-10T17:01:44.439Z,20.20
2018-07-10T17:04:12.747Z,20.30
2018-07-10T17:06:41.081Z,20.40
2018-07-10T17:09:09.381Z,20.50
2018-07-10T17:11:37.669Z,20.50
2018-07-10T17:14:06.093Z,20.50
2018-07-10T17:16:34.389Z,20.40
2018-07-10T17:19:02.685Z,20.30
2018-07-10T17:21:31.066Z,20.30
2018-07-10T17:24:01.774Z,20.10
2018-07-10T17:26:30.209Z,20.20
2018-07-10T17:29:00.713Z,20.00
2018-07-10T17:31:29.041Z,20.00
2018-07-10T17:33:57.325Z,20.00
2018-07-10T17:36:25.709Z,19.90
2018-07-10T17:38:54.001Z,19.90
2018-07-10T17:41:24.118Z,19.90
2018-07-10T17:46:20.823Z,19.90
2018-07-10T17:48:49.694Z,19.90
2018-07-10T17:51:17.985Z,19.80
2018-07-10T17:53:46.384Z,19.70
2018-07-10T17:56:14.905Z,19.70
2018-07-10T17:58:43.225Z,19.70
2018-07-10T18:01:11.565Z,19.70
2018-07-10T18:03:39.862Z,19.60
2018-07-10T18:06:08.191Z,19.60
2018-07-10T18:08:36.497Z,19.60
2018-07-10T18:11:05.321Z,19.50
2018-07-10T18:13:33.787Z,19.40
2018-07-10T18:16:02.164Z,19.50
2018-07-10T18:18:30.538Z,19.40
2018-07-10T18:21:00.159Z,19.40
2018-07-10T18:23:29.105Z,19.30
2018-07-10T18:25:57.536Z,19.30
2018-07-10T18:28:25.834Z,19.20
2018-07-10T18:30:54.230Z,19.20
2018-07-10T18:33:22.553Z,19.10
2018-07-10T18:35:50.934Z,19.10
2018-07-10T18:38:20.578Z,19.00
2018-07-10T18:40:49.017Z,19.10
2018-07-10T18:43:18.429Z,19.00
2018-07-10T18:45:46.919Z,19.10
2018-07-10T18:48:20.319Z,19.00
2018-07-10T18:50:48.927Z,19.00
2018-07-10T18:53:17.752Z,18.90
2018-07-10T18:55:46.943Z,18.80
2018-07-10T18:58:24.817Z,18.80
2018-07-10T19:02:06.656Z,18.70
2018-07-10T19:05:11.368Z,18.80
2018-07-10T19:07:41.154Z,18.60
2018-07-10T19:10:09.614Z,18.60
2018-07-10T19:15:07.598Z,18.50
2018-07-10T19:20:13.018Z,18.40
2018-07-10T19:22:51.199Z,18.40
2018-07-10T19:25:19.673Z,18.40
2018-07-10T19:27:52.314Z,18.30
2018-07-10T19:30:23.239Z,18.20
2018-07-10T19:32:51.581Z,18.10
2018-07-10T19:35:20.351Z,18.10
2018-07-10T19:37:48.794Z,18.00
2018-07-10T19:40:18.236Z,17.90
2018-07-10T19:42:47.824Z,17.90
2018-07-10T19:45:17.105Z,17.90
2018-07-10T19:47:45.526Z,17.90
2018-07-10T19:50:16.995Z,17.80
2018-07-10T19:52:49.093Z,17.80
2018-07-10T19:55:17.558Z,17.90
2018-07-10T19:58:05.775Z,17.70
2018-07-10T20:00:44.118Z,17.70
2018-07-10T20:03:28.478Z,17.60
2018-07-10T20:06:01.662Z,17.50
2018-07-10T20:08:30.014Z,17.40
2018-07-10T20:11:02.614Z,17.30
2018-07-10T20:13:42.094Z,17.30
2018-07-10T20:17:20.771Z,17.20
2018-07-10T20:20:20.511Z,17.20
2018-07-10T20:23:59.949Z,17.00
2018-07-10T20:26:42.202Z,16.90
2018-07-10T20:29:18.749Z,16.90
2018-07-10T20:32:04.633Z,16.90
2018-07-10T20:34:41.861Z,16.80
2018-07-10T20:37:15.233Z,16.70
2018-07-10T20:39:43.537Z,16.60
2018-07-10T20:42:11.833Z,16.60
2018-07-10T20:44:42.977Z,16.50
2018-07-10T20:47:11.289Z,16.50
2018-07-10T20:49:48.477Z,16.40
2018-07-10T20:52:25.142Z,16.40
2018-07-10T20:54:56.121Z,16.50
2018-07-10T20:57:30.253Z,16.40
2018-07-10T21:00:05.746Z,16.30
2018-07-10T21:02:42.526Z,16.30
2018-07-10T21:05:13.477Z,16.20
2018-07-10T21:07:53.637Z,16.20
2018-07-10T21:10:29.786Z,16.10
2018-07-10T21:13:06.041Z,16.00
2018-07-10T21:15:47.613Z,16.00
2018-07-10T21:18:30.797Z,15.90
2018-07-10T21:21:22.709Z,15.90
2018-07-10T21:24:25.529Z,15.80
2018-07-10T21:27:00.536Z,15.80
2018-07-10T21:29:38.278Z,15.70
2018-07-10T21:32:09.988Z,15.70
2018-07-10T21:34:43.097Z,15.60
2018-07-10T21:38:22.714Z,15.60
2018-07-10T21:42:01.315Z,15.50
2018-07-10T21:45:39.005Z,15.50
2018-07-10T21:48:19.387Z,15.40
2018-07-10T21:50:50.413Z,15.50
2018-07-10T21:53:19.069Z,15.40
2018-07-10T21:55:47.478Z,15.30
2018-07-10T21:58:17.573Z,15.30
2018-07-10T22:03:18.829Z,15.20
2018-07-10T22:05:47.250Z,15.20
2018-07-10T22:08:15.602Z,15.20
2018-07-10T22:10:43.938Z,15.20
2018-07-10T22:13:12.242Z,15.10
2018-07-10T22:15:40.530Z,15.00
2018-07-10T22:18:08.875Z,15.00
2018-07-10T22:20:37.189Z,15.00
2018-07-10T22:23:05.495Z,14.80
2018-07-10T22:25:33.807Z,14.80
2018-07-10T22:28:02.101Z,14.80
2018-07-10T22:33:04.545Z,14.90
2018-07-10T22:35:33.426Z,14.80
2018-07-10T22:38:01.828Z,14.70
2018-07-10T22:40:30.118Z,14.70
2018-07-10T22:42:58.417Z,14.70
2018-07-10T22:45:27.930Z,14.60
2018-07-10T22:47:56.221Z,14.60
2018-07-10T22:50:24.809Z,14.50
2018-07-10T22:52:54.478Z,14.50
2018-07-10T22:55:27.501Z,14.40
2018-07-10T22:57:59.225Z,14.40
2018-07-10T23:00:30.582Z,14.40
2018-07-10T23:02:59.625Z,14.40
2018-07-10T23:05:28.220Z,14.40
2018-07-10T23:07:56.544Z,14.40
2018-07-10T23:10:25.218Z,14.50
2018-07-10T23:12:53.518Z,14.50
2018-07-10T23:17:49.893Z,14.50
2018-07-10T23:20:18.221Z,14.50
2018-07-10T23:22:54.669Z,14.40
2018-07-10T23:25:24.799Z,14.40
2018-07-10T23:28:01.194Z,14.30
2018-07-10T23:30:32.261Z,14.20
2018-07-10T23:33:00.567Z,14.20
2018-07-10T23:35:31.145Z,14.20
2018-07-10T23:38:05.289Z,14.10
2018-07-10T23:40:34.437Z,14.10
2018-07-10T23:43:02.722Z,14.10
2018-07-10T23:45:30.998Z,14.10
2018-07-10T23:48:04.106Z,14.10
2018-07-10T23:50:34.010Z,14.10
2018-07-10T23:53:13.590Z,14.00
2018-07-10T23:55:41.898Z,14.00
2018-07-10T23:58:10.365Z,13.90
